Time;durP1;ratioP1;P1;durP2;ratioP2;P2;SDS_P1;SDS_P2;PMS_P1;PMS_P2;Temp;Humidity;BMP_temperature;BMP_pressure;BME280_temperature;BME280_humidity;BME280_pressure;Samples;Min_cycle;Max_cycle;Signal;HPM_P1;HPM_P2
2022/09/10 00:01:30;;;;;;;0.00;0.00;;;;;;;;;;5025325;28;20501;-78
2022/09/10 00:03:57;;;;;;;0.00;0.00;;;;;;;;;;5035742;28;20036;-77
2022/09/10 00:06:26;;;;;;;0.47;0.28;;;;;;;;;;5031364;28;20478;-78
2022/09/10 00:08:53;;;;;;;1.10;1.10;;;;;;;;;;5039057;28;20054;-79
2022/09/10 00:11:19;;;;;;;0.00;0.00;;;;;;;;;;5016265;28;20058;-77
2022/09/10 00:13:48;;;;;;;0.00;0.00;;;;;;;;;;5007849;28;20057;-77
2022/09/10 00:16:17;;;;;;;0.10;0.10;;;;;;;;;;4991605;28;20306;-78
2022/09/10 00:18:44;;;;;;;0.00;0.00;;;;;;;;;;5029303;28;20026;-78
2022/09/10 00:21:12;;;;;;;0.00;0.00;;;;;;;;;;4991987;28;20052;-78
2022/09/10 00:23:39;;;;;;;0.00;0.00;;;;;;;;;;5058828;28;20584;-78
2022/09/10 00:26:10;;;;;;;0.00;0.00;;;;;;;;;;4991371;28;20098;-77
2022/09/10 00:28:37;;;;;;;0.00;0.00;;;;;;;;;;4992005;28;20038;-77
2022/09/10 00:31:03;;;;;;;0.00;0.00;;;;;;;;;;4990844;28;20027;-78
2022/09/10 00:33:30;;;;;;;0.00;0.00;;;;;;;;;;4991193;28;20400;-77
2022/09/10 00:35:56;;;;;;;0.00;0.00;;;;;;;;;;5018186;28;20114;-78
2022/09/10 00:38:23;;;;;;;0.00;0.00;;;;;;;;;;5057519;28;20180;-78
2022/09/10 00:40:49;;;;;;;0.00;0.00;;;;;;;;;;5036980;28;20103;-78
2022/09/10 00:43:20;;;;;;;0.00;0.00;;;;;;;;;;5063230;28;20056;-79
2022/09/10 00:45:48;;;;;;;0.00;0.00;;;;;;;;;;5034330;28;20035;-78
2022/09/10 00:48:19;;;;;;;0.52;0.52;;;;;;;;;;5016457;28;20504;-79
2022/09/10 00:50:46;;;;;;;0.75;0.75;;;;;;;;;;4999919;28;20418;-78
2022/09/10 00:53:15;;;;;;;0.00;0.00;;;;;;;;;;4992470;28;20022;-78
2022/09/10 00:55:43;;;;;;;0.00;0.00;;;;;;;;;;4991940;28;20084;-77
2022/09/10 00:58:11;;;;;;;0.00;0.00;;;;;;;;;;4992101;28;20034;-78
2022/09/10 01:00:40;;;;;;;0.00;0.00;;;;;;;;;;4987902;28;20030;-78
2022/09/10 01:03:07;;;;;;;0.00;0.00;;;;;;;;;;4989326;28;20460;-77
2022/09/10 01:05:34;;;;;;;0.10;0.08;;;;;;;;;;5007276;28;20028;-78
2022/09/10 01:08:00;;;;;;;0.00;0.00;;;;;;;;;;5045520;28;20107;-78
2022/09/10 01:10:31;;;;;;;0.10;0.10;;;;;;;;;;5060920;28;20028;-78
2022/09/10 01:13:06;;;;;;;0.00;0.00;;;;;;;;;;5012154;28;20023;-78
2022/09/10 01:15:36;;;;;;;0.00;0.00;;;;;;;;;;4987990;28;20027;-78
2022/09/10 01:18:21;;;;;;;0.00;0.00;;;;;;;;;;4978621;28;20079;-79
2022/09/10 01:20:59;;;;;;;0.00;0.00;;;;;;;;;;4978127;28;20027;-78
2022/09/10 01:23:44;;;;;;;0.00;0.00;;;;;;;;;;5004283;28;20021;-79
2022/09/10 01:26:24;;;;;;;0.00;0.00;;;;;;;;;;4982315;28;20162;-78
2022/09/10 01:28:54;;;;;;;0.00;0.00;;;;;;;;;;4980358;28;20030;-78
2022/09/10 01:31:23;;;;;;;0.00;0.00;;;;;;;;;;4985524;28;20535;-78
2022/09/10 01:33:55;;;;;;;0.00;0.00;;;;;;;;;;4996135;28;20035;-78
2022/09/10 01:36:24;;;;;;;0.00;0.00;;;;;;;;;;4989436;28;20033;-79
2022/09/10 01:38:54;;;;;;;0.00;0.00;;;;;;;;;;4988854;28;20065;-78
2022/09/10 01:41:22;;;;;;;0.00;0.00;;;;;;;;;;4973789;28;20075;-79
2022/09/10 01:43:49;;;;;;;0.00;0.00;;;;;;;;;;5011384;28;20442;-78
2022/09/10 01:46:25;;;;;;;0.00;0.00;;;;;;;;;;5010642;28;20430;-79
2022/09/10 01:48:58;;;;;;;0.00;0.00;;;;;;;;;;5014964;28;20032;-78
2022/09/10 01:51:55;;;;;;;0.00;0.00;;;;;;;;;;5010770;28;20501;-78
2022/09/10 01:54:36;;;;;;;0.00;0.00;;;;;;;;;;5005475;28;20049;-78
2022/09/10 01:57:15;;;;;;;0.00;0.00;;;;;;;;;;5000840;28;20105;-78
2022/09/10 01:59:55;;;;;;;0.00;0.00;;;;;;;;;;4980433;28;20419;-78
2022/09/10 02:02:21;;;;;;;0.40;0.40;;;;;;;;;;4991935;28;20069;-77
2022/09/10 02:04:50;;;;;;;0.00;0.00;;;;;;;;;;5000482;28;20027;-78
2022/09/10 02:07:18;;;;;;;0.00;0.00;;;;;;;;;;4992439;28;20030;-78
2022/09/10 02:09:44;;;;;;;5.55;5.35;;;;;;;;;;4978559;28;20029;-79
2022/09/10 02:12:17;;;;;;;0.00;0.00;;;;;;;;;;4979795;28;20377;-78
2022/09/10 02:14:54;;;;;;;0.32;0.20;;;;;;;;;;4995884;28;20113;-78
2022/09/10 02:17:22;;;;;;;0.00;0.00;;;;;;;;;;4981196;28;20575;-79
2022/09/10 02:19:56;;;;;;;0.00;0.00;;;;;;;;;;4978333;28;20465;-79
2022/09/10 02:22:22;;;;;;;0.00;0.00;;;;;;;;;;4982179;28;20022;-77
2022/09/10 02:24:49;;;;;;;0.00;0.00;;;;;;;;;;4994758;28;20032;-78
2022/09/10 02:27:16;;;;;;;0.10;0.10;;;;;;;;;;4983993;28;20030;-78
2022/09/10 02:29:43;;;;;;;0.00;0.00;;;;;;;;;;4983106;28;20101;-78
2022/09/10 02:32:09;;;;;;;0.00;0.00;;;;;;;;;;4985561;28;20540;-78
2022/09/10 02:34:36;;;;;;;0.55;0.55;;;;;;;;;;4985692;28;20036;-78
2022/09/10 02:37:04;;;;;;;37.17;6.55;;;;;;;;;;4987636;28;20423;-78
2022/09/10 02:39:31;;;;;;;0.00;0.00;;;;;;;;;;4988240;28;20026;-79
2022/09/10 02:42:00;;;;;;;3.25;0.75;;;;;;;;;;4985604;28;20073;-78
2022/09/10 02:44:27;;;;;;;0.17;0.17;;;;;;;;;;4988986;28;20501;-78
2022/09/10 02:46:55;;;;;;;3.28;2.45;;;;;;;;;;4991543;28;20456;-79
2022/09/10 02:49:21;;;;;;;3.42;3.13;;;;;;;;;;5013675;28;20039;-79
2022/09/10 02:51:49;;;;;;;9.70;1.85;;;;;;;;;;5036209;28;20541;-79
2022/09/10 02:54:16;;;;;;;0.00;0.00;;;;;;;;;;5035806;28;20034;-79
2022/09/10 02:56:42;;;;;;;2.13;1.77;;;;;;;;;;4990074;28;20027;-78
2022/09/10 02:59:08;;;;;;;7.65;3.58;;;;;;;;;;4989261;28;20034;-79
2022/09/10 03:01:35;;;;;;;1.75;1.65;;;;;;;;;;4994288;28;20101;-79
2022/09/10 03:04:04;;;;;;;7.25;2.42;;;;;;;;;;5028371;28;20078;-79
2022/09/10 03:06:31;;;;;;;3.22;1.33;;;;;;;;;;4987780;28;20023;-78
2022/09/10 03:08:57;;;;;;;0.63;0.63;;;;;;;;;;5015967;28;20113;-78
2022/09/10 03:11:26;;;;;;;0.63;0.45;;;;;;;;;;4985326;28;20179;-78
2022/09/10 03:13:52;;;;;;;1.58;1.52;;;;;;;;;;4983629;28;20114;-79
2022/09/10 03:16:18;;;;;;;2.67;1.85;;;;;;;;;;4979735;28;20510;-78
2022/09/10 03:18:45;;;;;;;3.20;2.75;;;;;;;;;;4995784;28;20113;-78
2022/09/10 03:21:17;;;;;;;9.60;4.65;;;;;;;;;;4999033;28;20372;-79
2022/09/10 03:23:45;;;;;;;2.33;2.13;;;;;;;;;;4996249;28;20044;-78
2022/09/10 03:26:13;;;;;;;4.28;3.42;;;;;;;;;;4984185;28;20541;-78
2022/09/10 03:28:40;;;;;;;10.70;4.13;;;;;;;;;;5003943;28;20033;-78
2022/09/10 03:31:07;;;;;;;1.88;1.15;;;;;;;;;;4988905;28;20536;-78
2022/09/10 03:33:34;;;;;;;6.05;2.53;;;;;;;;;;5008623;28;20479;-77
2022/09/10 03:36:01;;;;;;;2.65;1.27;;;;;;;;;;4985410;28;20046;-78
2022/09/10 03:38:28;;;;;;;4.65;1.88;;;;;;;;;;4987021;28;20160;-78
2022/09/10 03:40:55;;;;;;;8.90;2.05;;;;;;;;;;5009029;28;20026;-78
2022/09/10 03:43:21;;;;;;;0.35;0.35;;;;;;;;;;4989696;28;20155;-78
2022/09/10 03:45:48;;;;;;;2.83;1.85;;;;;;;;;;5003697;28;20096;-78
2022/09/10 03:48:19;;;;;;;8.18;2.35;;;;;;;;;;4993528;28;20018;-78
2022/09/10 03:50:46;;;;;;;5.63;1.90;;;;;;;;;;5009667;28;20090;-78
2022/09/10 03:53:12;;;;;;;4.60;2.35;;;;;;;;;;5004152;28;20031;-78
2022/09/10 03:55:39;;;;;;;1.88;0.45;;;;;;;;;;4989434;28;20041;-79
2022/09/10 03:58:05;;;;;;;4.43;2.40;;;;;;;;;;4982896;28;20033;-78
2022/09/10 04:00:32;;;;;;;14.52;3.00;;;;;;;;;;5014716;28;20019;-78
2022/09/10 04:02:59;;;;;;;3.50;2.92;;;;;;;;;;4993564;28;20019;-78
2022/09/10 04:05:26;;;;;;;5.65;2.90;;;;;;;;;;4987785;28;20029;-78
2022/09/10 04:07:53;;;;;;;0.80;0.52;;;;;;;;;;4990881;28;20106;-78
2022/09/10 04:10:20;;;;;;;0.85;0.40;;;;;;;;;;4993071;28;20018;-78
2022/09/10 04:12:52;;;;;;;2.10;1.05;;;;;;;;;;4990506;28;20030;-79
2022/09/10 04:15:18;;;;;;;2.70;1.27;;;;;;;;;;4983884;28;20030;-79
2022/09/10 04:17:46;;;;;;;14.52;1.20;;;;;;;;;;4989956;28;20030;-78
2022/09/10 04:20:12;;;;;;;22.70;2.13;;;;;;;;;;4985841;28;20465;-78
2022/09/10 04:22:39;;;;;;;13.23;3.25;;;;;;;;;;4983265;28;20109;-79
2022/09/10 04:25:05;;;;;;;5.78;4.13;;;;;;;;;;4988911;28;20105;-79
2022/09/10 04:27:32;;;;;;;2.75;0.95;;;;;;;;;;4988340;28;20092;-78
2022/09/10 04:29:58;;;;;;;4.53;1.90;;;;;;;;;;4986185;28;20629;-79
2022/09/10 04:32:24;;;;;;;5.45;1.85;;;;;;;;;;4990909;28;20456;-78
2022/09/10 04:34:51;;;;;;;7.82;2.60;;;;;;;;;;5012454;28;20027;-78
2022/09/10 04:37:17;;;;;;;2.42;1.63;;;;;;;;;;5009080;28;20070;-78
2022/09/10 04:39:44;;;;;;;2.45;1.33;;;;;;;;;;4992073;28;20050;-77
2022/09/10 04:42:11;;;;;;;6.40;1.85;;;;;;;;;;4995424;28;20030;-78
2022/09/10 04:44:37;;;;;;;2.33;1.73;;;;;;;;;;4983745;28;20263;-78
2022/09/10 04:47:03;;;;;;;1.58;1.38;;;;;;;;;;4986802;28;20053;-78
2022/09/10 04:49:30;;;;;;;3.83;2.97;;;;;;;;;;4981426;28;20114;-78
2022/09/10 04:51:56;;;;;;;14.38;3.95;;;;;;;;;;4989046;28;20405;-78
2022/09/10 04:54:22;;;;;;;3.53;1.90;;;;;;;;;;4985843;28;20414;-79
2022/09/10 04:56:49;;;;;;;6.28;4.32;;;;;;;;;;4985153;28;20437;-79
2022/09/10 04:59:15;;;;;;;6.68;2.42;;;;;;;;;;4988980;28;20026;-79
2022/09/10 05:01:42;;;;;;;3.13;2.22;;;;;;;;;;4988426;28;20055;-77
2022/09/10 05:04:08;;;;;;;4.57;2.42;;;;;;;;;;4996550;28;20068;-77
2022/09/10 05:06:34;;;;;;;5.10;2.08;;;;;;;;;;4989315;28;20027;-78
2022/09/10 05:09:01;;;;;;;22.25;2.53;;;;;;;;;;4987718;28;20019;-79
2022/09/10 05:11:27;;;;;;;4.70;2.30;;;;;;;;;;4995077;28;20131;-78
2022/09/10 05:13:54;;;;;;;1.20;0.88;;;;;;;;;;4994971;28;20024;-78
2022/09/10 05:16:20;;;;;;;3.38;2.30;;;;;;;;;;4989672;28;20022;-78
2022/09/10 05:18:47;;;;;;;3.78;1.90;;;;;;;;;;4989986;28;20503;-79
2022/09/10 05:21:13;;;;;;;3.35;1.40;;;;;;;;;;4989421;28;20358;-78
2022/09/10 05:23:40;;;;;;;3.65;2.38;;;;;;;;;;4984049;28;20035;-78
2022/09/10 05:26:08;;;;;;;1.40;1.30;;;;;;;;;;4987527;28;20050;-78
2022/09/10 05:28:35;;;;;;;6.63;0.75;;;;;;;;;;4989237;28;20049;-78
2022/09/10 05:31:01;;;;;;;9.48;2.50;;;;;;;;;;4987309;28;20037;-78
2022/09/10 05:33:28;;;;;;;4.50;2.22;;;;;;;;;;4982956;28;20057;-79
2022/09/10 05:35:54;;;;;;;0.35;0.22;;;;;;;;;;4983161;28;20484;-79
2022/09/10 05:38:21;;;;;;;3.67;2.22;;;;;;;;;;4989874;28;20389;-79
2022/09/10 05:40:47;;;;;;;1.30;1.00;;;;;;;;;;4977236;28;20046;-78
2022/09/10 05:43:14;;;;;;;9.55;1.67;;;;;;;;;;4999520;28;20019;-78
2022/09/10 05:45:41;;;;;;;2.25;2.08;;;;;;;;;;5000467;28;20022;-78
2022/09/10 05:48:07;;;;;;;0.35;0.35;;;;;;;;;;4989578;28;20030;-79
2022/09/10 05:50:33;;;;;;;8.93;1.90;;;;;;;;;;5009157;28;20517;-78
2022/09/10 05:53:00;;;;;;;16.98;1.63;;;;;;;;;;5038073;28;20366;-80
2022/09/10 05:55:30;;;;;;;4.30;2.58;;;;;;;;;;5008205;28;20125;-82
2022/09/10 05:57:57;;;;;;;0.77;0.77;;;;;;;;;;4992027;28;20065;-82
2022/09/10 06:00:24;;;;;;;1.75;1.42;;;;;;;;;;5001024;28;20027;-82
2022/09/10 06:02:51;;;;;;;0.57;0.57;;;;;;;;;;4999036;28;20015;-80
2022/09/10 06:05:21;;;;;;;7.82;5.05;;;;;;;;;;4992266;28;20469;-83
2022/09/10 06:07:48;;;;;;;2.80;1.73;;;;;;;;;;4989895;28;20065;-78
2022/09/10 06:10:18;;;;;;;0.00;0.00;;;;;;;;;;4991300;28;20037;-81
2022/09/10 06:12:51;;;;;;;0.00;0.00;;;;;;;;;;4991861;28;20075;-81
2022/09/10 06:15:18;;;;;;;2.92;2.72;;;;;;;;;;4992178;28;20121;-81
2022/09/10 06:17:45;;;;;;;0.30;0.30;;;;;;;;;;5019021;28;20038;-83
2022/09/10 06:20:12;;;;;;;0.95;0.93;;;;;;;;;;5055554;28;20126;-82
2022/09/10 06:22:39;;;;;;;2.15;1.95;;;;;;;;;;4986228;28;20026;-82
2022/09/10 06:25:05;;;;;;;2.08;1.10;;;;;;;;;;4995171;28;20023;-81
2022/09/10 06:27:32;;;;;;;0.10;0.10;;;;;;;;;;5000335;28;20032;-79
2022/09/10 06:29:59;;;;;;;0.38;0.38;;;;;;;;;;5006815;28;20038;-81
2022/09/10 06:32:25;;;;;;;0.43;0.43;;;;;;;;;;4986692;28;20060;-81
2022/09/10 06:34:51;;;;;;;0.00;0.00;;;;;;;;;;4997952;28;20042;-80
2022/09/10 06:37:18;;;;;;;0.00;0.00;;;;;;;;;;5032860;28;20032;-82
2022/09/10 06:39:44;;;;;;;0.00;0.00;;;;;;;;;;4985437;28;20026;-82
2022/09/10 06:42:11;;;;;;;0.52;0.52;;;;;;;;;;5012184;28;20029;-80
2022/09/10 06:44:38;;;;;;;0.43;0.28;;;;;;;;;;4997501;28;20045;-81
2022/09/10 06:47:05;;;;;;;0.00;0.00;;;;;;;;;;4988785;28;20061;-80
2022/09/10 06:49:32;;;;;;;0.00;0.00;;;;;;;;;;4989071;28;20170;-82
2022/09/10 06:51:58;;;;;;;0.85;0.85;;;;;;;;;;4988658;28;20167;-84
2022/09/10 06:54:25;;;;;;;0.00;0.00;;;;;;;;;;4985555;28;20050;-81
2022/09/10 06:56:51;;;;;;;0.17;0.17;;;;;;;;;;5002574;28;20072;-82
2022/09/10 06:59:18;;;;;;;0.60;0.60;;;;;;;;;;5009716;28;20032;-82
2022/09/10 07:01:46;;;;;;;0.00;0.00;;;;;;;;;;5011870;28;20034;-82
2022/09/10 07:04:12;;;;;;;1.27;1.27;;;;;;;;;;4994669;28;20113;-79
2022/09/10 07:06:38;;;;;;;0.40;0.40;;;;;;;;;;5004904;28;20130;-82
2022/09/10 07:09:05;;;;;;;4.78;0.75;;;;;;;;;;5008101;28;20047;-83
2022/09/10 07:11:31;;;;;;;2.45;1.88;;;;;;;;;;5000877;28;20418;-81
2022/09/10 07:13:59;;;;;;;0.00;0.00;;;;;;;;;;5011022;28;20037;-81
2022/09/10 07:16:26;;;;;;;0.00;0.00;;;;;;;;;;5012059;28;20067;-81
2022/09/10 07:18:54;;;;;;;2.03;1.88;;;;;;;;;;5007344;28;20022;-81
2022/09/10 07:21:21;;;;;;;0.00;0.00;;;;;;;;;;5007648;28;20142;-81
2022/09/10 07:23:50;;;;;;;1.40;1.30;;;;;;;;;;4996068;28;20034;-81
2022/09/10 07:26:18;;;;;;;0.00;0.00;;;;;;;;;;5000356;28;20072;-81
2022/09/10 07:28:45;;;;;;;1.75;1.35;;;;;;;;;;4990633;28;20027;-79
2022/09/10 07:31:15;;;;;;;3.15;1.77;;;;;;;;;;5012203;28;20073;-78
2022/09/10 07:33:42;;;;;;;0.03;0.03;;;;;;;;;;4990167;28;20134;-78
2022/09/10 07:36:11;;;;;;;1.90;1.52;;;;;;;;;;4998911;28;20019;-79
2022/09/10 07:38:38;;;;;;;0.10;0.10;;;;;;;;;;4993411;28;20077;-80
2022/09/10 07:41:05;;;;;;;4.25;1.17;;;;;;;;;;5018428;28;20020;-79
2022/09/10 07:43:31;;;;;;;1.27;0.98;;;;;;;;;;4994756;28;20033;-79
2022/09/10 07:45:58;;;;;;;1.40;0.80;;;;;;;;;;5002052;28;20028;-79
2022/09/10 07:48:26;;;;;;;1.85;1.75;;;;;;;;;;5003676;28;20030;-79
2022/09/10 07:50:52;;;;;;;0.35;0.35;;;;;;;;;;4994180;28;20117;-79
2022/09/10 07:53:19;;;;;;;0.52;0.52;;;;;;;;;;4990923;28;20445;-79
2022/09/10 07:55:46;;;;;;;0.10;0.10;;;;;;;;;;5020737;28;20526;-78
2022/09/10 07:58:12;;;;;;;0.20;0.20;;;;;;;;;;4992118;28;20500;-79
2022/09/10 08:00:38;;;;;;;0.00;0.00;;;;;;;;;;5003862;28;20529;-79
2022/09/10 08:03:05;;;;;;;1.15;0.93;;;;;;;;;;5006071;28;20111;-78
2022/09/10 08:05:31;;;;;;;0.77;0.35;;;;;;;;;;5022866;28;20157;-80
2022/09/10 08:07:58;;;;;;;18.80;2.35;;;;;;;;;;4993089;28;20049;-78
2022/09/10 08:10:25;;;;;;;0.52;0.45;;;;;;;;;;4985584;28;20522;-78
2022/09/10 08:12:51;;;;;;;1.17;1.13;;;;;;;;;;5000931;28;20032;-78
2022/09/10 08:15:18;;;;;;;0.00;0.00;;;;;;;;;;4986846;28;20034;-78
2022/09/10 08:17:44;;;;;;;0.38;0.30;;;;;;;;;;4997060;28;20070;-78
2022/09/10 08:20:12;;;;;;;0.35;0.35;;;;;;;;;;5005968;28;20011;-78
2022/09/10 08:22:38;;;;;;;0.00;0.00;;;;;;;;;;4990972;28;20811;-79
2022/09/10 08:25:05;;;;;;;0.00;0.00;;;;;;;;;;5008717;28;20037;-78
2022/09/10 08:27:34;;;;;;;3.10;1.00;;;;;;;;;;5013196;28;20031;-81
2022/09/10 08:30:00;;;;;;;0.70;0.08;;;;;;;;;;5000112;28;20103;-80
2022/09/10 08:32:27;;;;;;;2.67;1.75;;;;;;;;;;4993189;28;20389;-77
2022/09/10 08:34:54;;;;;;;0.10;0.10;;;;;;;;;;4987934;28;20377;-78
2022/09/10 08:37:20;;;;;;;2.00;1.85;;;;;;;;;;4989892;28;20058;-77
2022/09/10 08:39:47;;;;;;;11.90;2.60;;;;;;;;;;4997478;28;20045;-79
2022/09/10 08:42:18;;;;;;;3.85;2.88;;;;;;;;;;5001476;28;20033;-78
2022/09/10 08:44:57;;;;;;;10.93;3.15;;;;;;;;;;4988539;28;20027;-78
2022/09/10 08:47:32;;;;;;;14.50;8.80;;;;;;;;;;4997458;28;20041;-79
2022/09/10 08:50:12;;;;;;;4.68;2.35;;;;;;;;;;5012103;28;20153;-78
2022/09/10 08:52:59;;;;;;;2.05;0.45;;;;;;;;;;5020560;28;20042;-78
2022/09/10 08:55:30;;;;;;;0.00;0.00;;;;;;;;;;4992849;28;20419;-79
2022/09/10 08:57:57;;;;;;;7.25;3.53;;;;;;;;;;5000737;28;20076;-78
2022/09/10 09:00:31;;;;;;;3.70;3.53;;;;;;;;;;4993756;28;20051;-78
2022/09/10 09:03:15;;;;;;;5.05;3.10;;;;;;;;;;5006805;28;20190;-78
2022/09/10 09:05:54;;;;;;;0.85;0.85;;;;;;;;;;4991359;28;20034;-78
2022/09/10 09:08:26;;;;;;;20.48;3.75;;;;;;;;;;4999414;28;20093;-78
2022/09/10 09:10:53;;;;;;;2.40;1.17;;;;;;;;;;4986236;28;20110;-78
2022/09/10 09:13:25;;;;;;;1.55;1.50;;;;;;;;;;5000945;28;20042;-78
2022/09/10 09:15:57;;;;;;;0.00;0.00;;;;;;;;;;4990451;28;20061;-79
2022/09/10 09:18:26;;;;;;;3.10;1.95;;;;;;;;;;5010955;28;20020;-78
2022/09/10 09:21:06;;;;;;;0.80;0.63;;;;;;;;;;5010998;28;20031;-78
2022/09/10 09:23:40;;;;;;;3.42;3.13;;;;;;;;;;4988038;28;20105;-78
2022/09/10 09:26:11;;;;;;;0.00;0.00;;;;;;;;;;5002401;28;20039;-78
2022/09/10 09:28:45;;;;;;;0.15;0.03;;;;;;;;;;5005485;28;20026;-78
2022/09/10 09:31:16;;;;;;;8.75;0.98;;;;;;;;;;4988188;28;20434;-78
2022/09/10 09:33:44;;;;;;;5.13;1.27;;;;;;;;;;4986075;28;20541;-78
2022/09/10 09:36:16;;;;;;;0.22;0.17;;;;;;;;;;4987440;28;20105;-79
2022/09/10 09:38:44;;;;;;;0.17;0.10;;;;;;;;;;5005307;28;20034;-78
2022/09/10 09:41:17;;;;;;;3.97;3.70;;;;;;;;;;5021533;28;20355;-78
2022/09/10 09:43:55;;;;;;;4.18;3.83;;;;;;;;;;4986221;28;20091;-79
2022/09/10 09:46:23;;;;;;;3.30;3.10;;;;;;;;;;4990997;28;20032;-78
2022/09/10 09:48:53;;;;;;;0.20;0.20;;;;;;;;;;4988081;28;20026;-79
2022/09/10 09:51:20;;;;;;;0.20;0.20;;;;;;;;;;5001262;28;20047;-78
2022/09/10 09:53:50;;;;;;;7.78;1.45;;;;;;;;;;4998292;28;20145;-77
2022/09/10 09:56:21;;;;;;;3.15;0.60;;;;;;;;;;4998147;28;20061;-78
2022/09/10 09:58:48;;;;;;;0.13;0.08;;;;;;;;;;4997155;28;20134;-77
2022/09/10 10:01:22;;;;;;;2.83;0.35;;;;;;;;;;5003224;28;20061;-78
2022/09/10 10:03:57;;;;;;;0.17;0.17;;;;;;;;;;4987228;28;20088;-77
2022/09/10 10:06:29;;;;;;;3.47;2.90;;;;;;;;;;4990943;28;20041;-78
2022/09/10 10:09:05;;;;;;;0.28;0.28;;;;;;;;;;5023651;28;20086;-80
2022/09/10 10:11:46;;;;;;;0.00;0.00;;;;;;;;;;4999867;28;20042;-77
2022/09/10 10:14:14;;;;;;;0.32;0.32;;;;;;;;;;4997967;28;20404;-78
2022/09/10 10:16:40;;;;;;;1.20;1.05;;;;;;;;;;4989135;28;20034;-78
2022/09/10 10:19:25;;;;;;;1.55;0.43;;;;;;;;;;5002326;28;20105;-79
2022/09/10 10:21:53;;;;;;;1.30;0.85;;;;;;;;;;4991969;28;20376;-77
2022/09/10 10:24:33;;;;;;;0.10;0.10;;;;;;;;;;5006252;28;20022;-78
2022/09/10 10:26:59;;;;;;;0.80;0.80;;;;;;;;;;5011607;28;20097;-79
2022/09/10 10:29:27;;;;;;;0.00;0.00;;;;;;;;;;4991323;28;20018;-79
2022/09/10 10:31:54;;;;;;;1.92;1.10;;;;;;;;;;4984680;28;20518;-79
2022/09/10 10:34:40;;;;;;;2.30;1.23;;;;;;;;;;4991728;28;20041;-78
2022/09/10 10:37:09;;;;;;;0.45;0.45;;;;;;;;;;4986669;28;20026;-78
2022/09/10 10:39:50;;;;;;;0.22;0.22;;;;;;;;;;4993930;28;20060;-78
2022/09/10 10:42:25;;;;;;;6.13;4.43;;;;;;;;;;5016337;28;20387;-77
2022/09/10 10:44:51;;;;;;;0.80;0.80;;;;;;;;;;5023074;28;20037;-78
2022/09/10 10:47:27;;;;;;;0.75;0.32;;;;;;;;;;5007846;28;20041;-79
2022/09/10 10:50:07;;;;;;;0.00;0.00;;;;;;;;;;5000988;28;20040;-77
2022/09/10 10:52:37;;;;;;;0.40;0.17;;;;;;;;;;5006426;28;20066;-77
2022/09/10 10:55:06;;;;;;;1.17;0.43;;;;;;;;;;5008453;28;20020;-77
2022/09/10 10:57:39;;;;;;;0.00;0.00;;;;;;;;;;4992993;28;20396;-78
2022/09/10 11:00:09;;;;;;;1.17;0.57;;;;;;;;;;5020154;28;20114;-78
2022/09/10 11:02:44;;;;;;;0.30;0.30;;;;;;;;;;4982872;28;20740;-78
2022/09/10 11:05:30;;;;;;;0.75;0.68;;;;;;;;;;5023319;28;20031;-78
2022/09/10 11:08:00;;;;;;;0.38;0.28;;;;;;;;;;4982011;28;20377;-78
2022/09/10 11:10:33;;;;;;;2.78;2.67;;;;;;;;;;4992400;28;20122;-78
2022/09/10 11:13:08;;;;;;;0.00;0.00;;;;;;;;;;4989587;28;20036;-77
2022/09/10 11:15:43;;;;;;;1.35;0.55;;;;;;;;;;4986362;28;20033;-78
2022/09/10 11:18:19;;;;;;;0.00;0.00;;;;;;;;;;4984989;28;20079;-78
2022/09/10 11:20:59;;;;;;;0.10;0.10;;;;;;;;;;4986479;28;20106;-78
2022/09/10 11:23:32;;;;;;;0.00;0.00;;;;;;;;;;4987114;28;20385;-78
2022/09/10 11:26:17;;;;;;;0.00;0.00;;;;;;;;;;4994515;28;20104;-79
2022/09/10 11:28:53;;;;;;;1.20;0.88;;;;;;;;;;4984819;28;20093;-79
2022/09/10 11:31:40;;;;;;;2.70;2.60;;;;;;;;;;4983258;28;20487;-78
2022/09/10 11:34:12;;;;;;;0.00;0.00;;;;;;;;;;4963792;28;20054;-78
2022/09/10 11:37:07;;;;;;;0.00;0.00;;;;;;;;;;4949464;28;20244;-78
2022/09/10 11:39:34;;;;;;;0.32;0.32;;;;;;;;;;4940402;29;20089;-78
2022/09/10 11:42:07;;;;;;;0.00;0.00;;;;;;;;;;4969589;28;20078;-78
2022/09/10 11:44:33;;;;;;;0.00;0.00;;;;;;;;;;4955744;28;20373;-78
2022/09/10 11:46:59;;;;;;;0.00;0.00;;;;;;;;;;4947793;28;20463;-78
2022/09/10 11:49:47;;;;;;;0.03;0.03;;;;;;;;;;4957090;28;20142;-78
2022/09/10 11:52:13;;;;;;;5.32;4.85;;;;;;;;;;4969999;28;20373;-78
2022/09/10 11:54:41;;;;;;;10.90;10.25;;;;;;;;;;4958034;28;20106;-78
2022/09/10 11:57:11;;;;;;;0.00;0.00;;;;;;;;;;4961089;28;20027;-78
2022/09/10 11:59:48;;;;;;;0.55;0.50;;;;;;;;;;4957042;28;20035;-78
2022/09/10 12:02:32;;;;;;;0.00;0.00;;;;;;;;;;4972805;28;20367;-78
2022/09/10 12:05:18;;;;;;;0.00;0.00;;;;;;;;;;4975779;28;20027;-78
2022/09/10 12:07:55;;;;;;;0.00;0.00;;;;;;;;;;4971518;28;20032;-78
2022/09/10 12:10:22;;;;;;;15.60;0.50;;;;;;;;;;5001207;28;20509;-77
2022/09/10 12:12:49;;;;;;;2.65;1.80;;;;;;;;;;4965245;28;20153;-76
2022/09/10 12:15:23;;;;;;;1.70;1.13;;;;;;;;;;4965353;28;20031;-77
2022/09/10 12:17:55;;;;;;;1.20;0.43;;;;;;;;;;4994290;28;20110;-79
2022/09/10 12:20:41;;;;;;;0.00;0.00;;;;;;;;;;4983813;28;20030;-80
2022/09/10 12:23:14;;;;;;;1.40;0.90;;;;;;;;;;4952974;28;20036;-79
2022/09/10 12:25:41;;;;;;;0.00;0.00;;;;;;;;;;4975552;28;20386;-79
2022/09/10 12:28:27;;;;;;;0.00;0.00;;;;;;;;;;4983365;28;20083;-79
2022/09/10 12:31:01;;;;;;;0.00;0.00;;;;;;;;;;4985689;28;20135;-79
2022/09/10 12:33:29;;;;;;;0.00;0.00;;;;;;;;;;5013410;28;20047;-79
2022/09/10 12:35:56;;;;;;;1.17;0.40;;;;;;;;;;5048850;28;20422;-79
2022/09/10 12:38:41;;;;;;;2.15;1.00;;;;;;;;;;5001243;28;20533;-79
2022/09/10 12:41:30;;;;;;;3.17;1.42;;;;;;;;;;4984474;28;20027;-79
2022/09/10 12:43:57;;;;;;;0.10;0.10;;;;;;;;;;4990472;28;20038;-79
2022/09/10 12:46:24;;;;;;;0.50;0.50;;;;;;;;;;5019683;28;20167;-79
2022/09/10 12:48:51;;;;;;;0.00;0.00;;;;;;;;;;4999831;28;20053;-79
2022/09/10 12:51:17;;;;;;;0.00;0.00;;;;;;;;;;4998655;28;20398;-79
2022/09/10 12:53:43;;;;;;;0.40;0.40;;;;;;;;;;5015088;28;20022;-80
2022/09/10 12:56:20;;;;;;;0.10;0.10;;;;;;;;;;4998474;28;20027;-79
2022/09/10 12:58:52;;;;;;;0.38;0.38;;;;;;;;;;5010108;28;20075;-80
2022/09/10 13:01:26;;;;;;;0.00;0.00;;;;;;;;;;5034492;28;20073;-79
2022/09/10 13:04:12;;;;;;;0.03;0.03;;;;;;;;;;5010308;28;20154;-80
2022/09/10 13:06:41;;;;;;;1.35;0.45;;;;;;;;;;5006783;28;20034;-80
2022/09/10 13:09:18;;;;;;;2.88;2.72;;;;;;;;;;5046809;28;20032;-80
2022/09/10 13:11:47;;;;;;;0.70;0.70;;;;;;;;;;5017691;28;20027;-79
2022/09/10 13:14:21;;;;;;;2.60;2.50;;;;;;;;;;5030295;28;20026;-80
2022/09/10 13:16:47;;;;;;;3.65;1.58;;;;;;;;;;5039321;28;20060;-80
2022/09/10 13:19:18;;;;;;;0.10;0.00;;;;;;;;;;5037990;28;20039;-80
2022/09/10 13:21:45;;;;;;;0.13;0.13;;;;;;;;;;5000240;28;20483;-81
2022/09/10 13:24:30;;;;;;;0.00;0.00;;;;;;;;;;5012118;28;20387;-79
2022/09/10 13:27:14;;;;;;;0.00;0.00;;;;;;;;;;5011233;28;20381;-81
2022/09/10 13:29:46;;;;;;;0.60;0.60;;;;;;;;;;4995562;28;20061;-80
2022/09/10 13:32:12;;;;;;;0.00;0.00;;;;;;;;;;4990961;28;20582;-79
2022/09/10 13:34:40;;;;;;;0.00;0.00;;;;;;;;;;5007723;28;20038;-79
2022/09/10 13:37:21;;;;;;;0.00;0.00;;;;;;;;;;4994588;28;20350;-79
2022/09/10 13:40:14;;;;;;;0.00;0.00;;;;;;;;;;5008848;28;20596;-79
2022/09/10 13:43:00;;;;;;;0.52;0.52;;;;;;;;;;5014822;28;20034;-79
2022/09/10 13:45:29;;;;;;;0.10;0.10;;;;;;;;;;5002661;28;20107;-80
2022/09/10 13:48:01;;;;;;;0.25;0.25;;;;;;;;;;5030610;28;20012;-80
2022/09/10 13:50:32;;;;;;;0.73;0.73;;;;;;;;;;5019540;28;20049;-78
2022/09/10 13:52:59;;;;;;;0.00;0.00;;;;;;;;;;5040212;28;20094;-79
2022/09/10 13:55:29;;;;;;;0.00;0.00;;;;;;;;;;5025395;28;20064;-79
2022/09/10 13:58:00;;;;;;;0.10;0.10;;;;;;;;;;5049112;28;20076;-78
2022/09/10 14:00:36;;;;;;;0.60;0.60;;;;;;;;;;5003620;28;20167;-80
2022/09/10 14:03:13;;;;;;;0.40;0.40;;;;;;;;;;5020715;28;20047;-79
2022/09/10 14:05:43;;;;;;;5.63;4.55;;;;;;;;;;4989224;28;20026;-79
2022/09/10 14:08:16;;;;;;;4.05;3.83;;;;;;;;;;5007778;28;20034;-79
2022/09/10 14:10:59;;;;;;;0.00;0.00;;;;;;;;;;4999916;28;20028;-79
2022/09/10 14:13:45;;;;;;;1.08;1.08;;;;;;;;;;4989026;28;20403;-79
2022/09/10 14:16:14;;;;;;;2.40;2.22;;;;;;;;;;5012707;28;20604;-80
2022/09/10 14:18:53;;;;;;;3.20;0.75;;;;;;;;;;5011593;28;20476;-80
2022/09/10 14:21:25;;;;;;;6.88;6.57;;;;;;;;;;4984275;28;20490;-80
2022/09/10 14:23:54;;;;;;;0.77;0.77;;;;;;;;;;4988219;28;20022;-80
2022/09/10 14:26:23;;;;;;;0.10;0.10;;;;;;;;;;4982067;28;20026;-79
2022/09/10 14:28:50;;;;;;;0.13;0.13;;;;;;;;;;4993726;28;20030;-79
2022/09/10 14:31:26;;;;;;;2.60;2.45;;;;;;;;;;4995323;28;20168;-78
2022/09/10 14:33:57;;;;;;;0.00;0.00;;;;;;;;;;4952095;28;20477;-79
2022/09/10 14:36:33;;;;;;;0.00;0.00;;;;;;;;;;4942188;29;20351;-79
2022/09/10 14:39:13;;;;;;;0.00;0.00;;;;;;;;;;4959701;28;20466;-79
2022/09/10 14:41:40;;;;;;;0.00;0.00;;;;;;;;;;4948092;28;20516;-79
2022/09/10 14:44:21;;;;;;;0.00;0.00;;;;;;;;;;4955492;28;20443;-80
2022/09/10 14:46:52;;;;;;;0.52;0.52;;;;;;;;;;4946034;28;20393;-81
2022/09/10 14:49:19;;;;;;;1.33;1.27;;;;;;;;;;4959108;28;20027;-81
2022/09/10 14:51:46;;;;;;;0.40;0.35;;;;;;;;;;4979553;28;20046;-78
2022/09/10 14:54:13;;;;;;;0.05;0.05;;;;;;;;;;4962079;28;20386;-78
2022/09/10 14:56:45;;;;;;;0.10;0.10;;;;;;;;;;4945206;28;20053;-79
2022/09/10 14:59:37;;;;;;;0.80;0.80;;;;;;;;;;4950721;28;20069;-79
2022/09/10 15:02:16;;;;;;;0.47;0.47;;;;;;;;;;4942502;28;20059;-79